This is the latest recevied weather packets stored in our database for station/object S57PNX-8. If no packets are shown the sender has not sent any weather packets the latest 10 day(s).
| Time | Temp. | Humidity | Pressure | Rain* | Wind** | Luminosity | Snow |
|---|---|---|---|---|---|---|---|
| 1787858482 | 21.11° C | 92% | 1026.1 hPa | - | - | - | - |
| 1787857579 | 21.67° C | 92% | 1026.1 hPa | - | - | - | - |
| 1787856676 | 21.67° C | 92% | 1026 hPa | - | - | - | - |
| 1787855777 | 21.67° C | 92% | 1026 hPa | - | - | - | - |
| 1787854879 | 21.67° C | 91% | 1025.9 hPa | - | - | - | - |
| 1787853979 | 22.22° C | 86% | 1025.7 hPa | - | - | - | - |
| 1787853080 | 22.78° C | 85% | 1025.6 hPa | - | - | - | - |
| 1787852261 | 22.78° C | 83% | 1025.5 hPa | - | - | - | - |
| 1787852214 | 22.78° C | 83% | 1025.5 hPa | - | - | - | - |
| 1787852181 | 22.78° C | 83% | 1025.5 hPa | - | - | - | - |
| 1787851281 | 23.33° C | 81% | 1025.5 hPa | - | - | - | - |
| 1787850382 | 23.89° C | 78% | 1025.6 hPa | - | - | - | - |
| 1787849483 | 24.44° C | 76% | 1025.5 hPa | - | - | - | - |
| 1787849221 | 25.56° C | 73% | 1025.8 hPa | - | - | - | - |
| 1787849220 | 25.56° C | 72% | 1025.6 hPa | - | - | - | - |
| 1787848585 | 25° C | 74% | 1025.6 hPa | - | - | - | - |
| 1787847679 | 25.56° C | 72% | 1025.7 hPa | - | - | - | - |
| 1787846780 | 26.11° C | 70% | 1025.8 hPa | - | - | - | - |
| 1787845881 | 26.11° C | 70% | 1025.8 hPa | - | - | - | - |
| 1787845027 | 25.56° C | 70% | 1026 hPa | - | - | - | - |
| 1787844982 | 25.56° C | 70% | 1026 hPa | - | - | - | - |
| 1787844083 | 25.56° C | 71% | 1025.9 hPa | - | - | - | - |
| 1787843184 | 26.11° C | 71% | 1025.8 hPa | - | - | - | - |
| 1787842285 | 25.56° C | 73% | 1025.8 hPa | - | - | - | - |
| 1787841617 | 25.56° C | 72% | 1025.6 hPa | - | - | - | - |
* Rain since midnight (hover to see other rain measurements)
** Current wind speed in m/s (hover to see current wind gust speed)